首页
METAR-TAF:

METAR-TAF

机场 :

德拉姆堡, 紐約州, 美国

纬度: 44-03N, 经度: 075-44W, 海拔: 207米

当前天气观测

该预报发布于1小时和11分钟前的07:56 UTC
风速8节,风向东南
温度 -4°C
湿度 58%
气压 1026 hPa
能見度: 16.1公里
天空无云

METAR: KGTB 130756Z AUTO 14008KT 10SM CLR M04/M11 A3029 RMK AO2 SLP268 T10371114 $

时间: 04:07 (09:07 UTC)

预报

该预报发布于8小时和7分钟前的01:00 UTC
预报有效从13日的 01点(UTC)到 14日的 07点(UTC)
风速9节,风向南转南东
能见度10公里或以上
少量云层高于7500英尺
多云层高于14000英尺
成为
从 13日的 04点(UTC)到 13日的 05点(UTC)
风速12节,风向
能见度10公里或以上
少量云层高于6500英尺
散云层高于9000英尺
成为
从 13日的 13点(UTC)到 13日的 14点(UTC)
风速12节,风向,有时为18节阵风
能见度10公里或以上
少量云层高于21000英尺
成为
从 13日的 16点(UTC)到 13日的 17点(UTC)
风速12节,风向
能见度10公里或以上
多云层高于1500英尺
成为
从 13日的 23点(UTC)到 13日的 24点(UTC)
风速6节,风向南转南东
能見度: 9000
多云层高于600英尺
阴天层高于1500英尺
小雨

TAF: KGTB 130100Z 1301/1407 16009KT 9999 FEW075 BKN140 QNH3033INS BECMG 1304/1305 17012KT 9999 FEW065 SCT090 WS020/20045KT QNH3025INS BECMG 1313/1314 18012G18KT 9999 FEW210 QNH3019INS BECMG 1316/1317 18012KT 9999 BKN015 QNH3006INS BECMG 1323/1324 15006KT 9000 -RA BKN006 OVC015 QNH2985INS TX02/1401Z TNM06/1302Z

超过4000个机场的气象观测和天气预报(METAR&TAF报告)。

可查询的气象台以黄色和红色小点在地图上表示。

将鼠标移到小点上方,可查看气象台名称。

然后点击查看天气观测和预报。

如需切换地图:点击带黑十字的绿色按钮放大地图;点击带横线的绿色按钮缩小地图;或者点击绿色箭头查看邻近地区的地图。


METAR-TAF: